createdAt,value
2023-02-18T00:01:30.347Z,8.20
2023-02-18T00:03:58.779Z,8.10
2023-02-18T00:06:28.272Z,8.10
2023-02-18T00:08:55.878Z,8.10
2023-02-18T00:11:22.834Z,8.00
2023-02-18T00:13:54.358Z,8.00
2023-02-18T00:16:21.858Z,8.00
2023-02-18T00:18:49.140Z,8.00
2023-02-18T00:21:16.084Z,8.00
2023-02-18T00:23:44.004Z,8.10
2023-02-18T00:26:16.673Z,8.10
2023-02-18T00:28:43.894Z,8.00
2023-02-18T00:31:16.976Z,8.10
2023-02-18T00:33:44.673Z,8.10
2023-02-18T00:36:15.332Z,8.10
2023-02-18T00:38:48.202Z,8.00
2023-02-18T00:41:16.258Z,8.00
2023-02-18T00:43:43.961Z,8.00
2023-02-18T00:46:11.660Z,8.00
2023-02-18T00:48:38.797Z,7.90
2023-02-18T00:51:06.983Z,7.90
2023-02-18T00:53:35.677Z,7.90
2023-02-18T00:56:02.613Z,7.90
2023-02-18T00:58:29.816Z,7.90
2023-02-18T01:00:57.060Z,7.90
2023-02-18T01:03:25.012Z,7.80
2023-02-18T01:05:53.262Z,7.80
2023-02-18T01:08:21.808Z,7.80
2023-02-18T01:10:50.376Z,7.80
2023-02-18T01:13:17.353Z,7.80
2023-02-18T01:15:44.565Z,7.80
2023-02-18T01:18:11.561Z,7.90
2023-02-18T01:20:41.649Z,7.80
2023-02-18T01:23:09.679Z,7.80
2023-02-18T01:25:37.223Z,7.80
2023-02-18T01:28:07.347Z,7.80
2023-02-18T01:30:35.016Z,7.80
2023-02-18T01:33:01.918Z,7.80
2023-02-18T01:35:29.436Z,7.80
2023-02-18T01:37:56.236Z,7.80
2023-02-18T01:40:27.287Z,7.80
2023-02-18T01:42:54.848Z,7.80
2023-02-18T01:46:03.275Z,7.80
2023-02-18T01:48:41.970Z,7.80
2023-02-18T01:51:27.216Z,7.70
2023-02-18T01:54:09.342Z,7.70
2023-02-18T01:57:18.583Z,7.70
2023-02-18T02:00:12.280Z,7.70
2023-02-18T02:02:44.352Z,7.60
2023-02-18T02:05:11.805Z,7.60
2023-02-18T02:07:41.145Z,7.60
2023-02-18T02:10:09.500Z,7.60
2023-02-18T02:13:07.163Z,7.50
2023-02-18T02:16:06.458Z,7.50
2023-02-18T02:18:51.045Z,7.40
2023-02-18T02:21:35.622Z,7.40
2023-02-18T02:24:35.833Z,7.40
2023-02-18T02:27:25.029Z,7.30
2023-02-18T02:30:01.887Z,7.40
2023-02-18T02:33:13.515Z,7.30
2023-02-18T02:35:51.590Z,7.20
2023-02-18T02:38:33.890Z,7.20
2023-02-18T02:41:48.282Z,7.20
2023-02-18T02:44:17.965Z,7.20
2023-02-18T02:46:47.095Z,7.20
2023-02-18T02:49:17.004Z,7.20
2023-02-18T02:51:48.056Z,7.10
2023-02-18T02:54:26.892Z,7.10
2023-02-18T02:57:13.490Z,7.10
2023-02-18T02:59:44.188Z,7.10
2023-02-18T03:02:47.634Z,7.00
2023-02-18T03:05:37.883Z,7.00
2023-02-18T03:08:10.808Z,7.00
2023-02-18T03:11:04.733Z,7.00
2023-02-18T03:14:04.457Z,6.90
2023-02-18T03:16:51.288Z,7.00
2023-02-18T03:19:39.415Z,6.90
2023-02-18T03:22:26.996Z,6.90
2023-02-18T03:24:57.420Z,6.90
2023-02-18T03:27:30.516Z,6.80
2023-02-18T03:30:07.376Z,6.80
2023-02-18T03:32:35.561Z,6.70
2023-02-18T03:35:11.253Z,6.60
2023-02-18T03:37:43.536Z,6.60
2023-02-18T03:40:12.423Z,6.60
2023-02-18T03:42:39.352Z,6.60
2023-02-18T03:45:06.421Z,6.50
2023-02-18T03:47:35.703Z,6.50
2023-02-18T03:50:02.816Z,6.50
2023-02-18T03:52:29.769Z,6.40
2023-02-18T03:54:56.582Z,6.40
2023-02-18T03:57:23.418Z,6.40
2023-02-18T03:59:50.297Z,6.40
2023-02-18T04:02:17.145Z,6.40
2023-02-18T04:04:43.938Z,6.40
2023-02-18T04:07:13.051Z,6.30
2023-02-18T04:09:39.832Z,6.40
2023-02-18T04:12:06.869Z,6.30
2023-02-18T04:14:33.801Z,6.40
2023-02-18T04:17:01.581Z,6.30
2023-02-18T04:19:28.452Z,6.30
2023-02-18T04:21:55.232Z,6.30
2023-02-18T04:24:22.075Z,6.30
2023-02-18T04:26:49.908Z,6.20
2023-02-18T04:29:16.773Z,6.20
2023-02-18T04:31:43.647Z,6.20
2023-02-18T04:34:10.932Z,6.20
2023-02-18T04:36:37.912Z,6.20
2023-02-18T04:39:04.726Z,6.20
2023-02-18T04:41:31.595Z,6.20
2023-02-18T04:43:59.702Z,6.10
2023-02-18T04:46:26.508Z,6.10
2023-02-18T04:48:53.510Z,6.10
2023-02-18T04:51:20.577Z,6.10
2023-02-18T04:53:47.620Z,6.10
2023-02-18T04:56:14.540Z,6.10
2023-02-18T04:58:41.324Z,6.10
2023-02-18T05:01:08.180Z,6.10
2023-02-18T05:03:35.077Z,6.00
2023-02-18T05:06:01.951Z,6.10
2023-02-18T05:08:29.138Z,6.00
2023-02-18T05:10:56.196Z,6.00
2023-02-18T05:13:24.238Z,6.10
2023-02-18T05:15:51.239Z,6.00
2023-02-18T05:18:18.226Z,6.00
2023-02-18T05:20:45.536Z,6.00
2023-02-18T05:23:12.357Z,6.00
2023-02-18T05:25:39.169Z,6.00
2023-02-18T05:28:05.976Z,6.00
2023-02-18T05:30:33.075Z,6.00
2023-02-18T05:32:59.959Z,6.00
2023-02-18T05:35:26.732Z,6.00
2023-02-18T05:37:53.457Z,6.00
2023-02-18T05:40:20.365Z,5.90
2023-02-18T05:42:47.414Z,5.90
2023-02-18T05:45:14.252Z,5.90
2023-02-18T05:47:41.096Z,6.00
2023-02-18T05:50:08.621Z,6.00
2023-02-18T05:52:35.669Z,6.00
2023-02-18T05:55:02.731Z,6.00
2023-02-18T05:57:29.679Z,6.00
2023-02-18T05:59:56.509Z,6.00
2023-02-18T06:02:23.579Z,6.00
2023-02-18T06:04:50.644Z,6.00
2023-02-18T06:07:18.400Z,6.00
2023-02-18T06:09:46.962Z,6.00
2023-02-18T06:12:13.954Z,6.00
2023-02-18T06:14:42.343Z,6.00
2023-02-18T06:17:10.867Z,6.00
2023-02-18T06:19:37.912Z,6.00
2023-02-18T06:22:05.124Z,6.00
2023-02-18T06:24:32.084Z,6.00
2023-02-18T06:26:58.929Z,6.10
2023-02-18T06:29:25.877Z,6.10
2023-02-18T06:31:52.661Z,6.20
2023-02-18T06:34:19.527Z,6.20
2023-02-18T06:36:46.344Z,6.20
2023-02-18T06:39:13.171Z,6.20
2023-02-18T06:41:40.699Z,6.30
2023-02-18T06:44:07.953Z,6.30
2023-02-18T06:46:35.125Z,6.20
2023-02-18T06:49:02.111Z,6.30
2023-02-18T06:51:28.967Z,6.30
2023-02-18T06:53:55.772Z,6.30
2023-02-18T06:56:22.619Z,6.30
2023-02-18T06:58:49.489Z,6.30
2023-02-18T07:01:16.354Z,6.40
2023-02-18T07:03:43.181Z,6.30
2023-02-18T07:06:10.413Z,6.40
2023-02-18T07:08:37.751Z,6.30
2023-02-18T07:11:06.758Z,6.40
2023-02-18T07:13:33.754Z,6.40
2023-02-18T07:16:00.594Z,6.40
2023-02-18T07:18:27.628Z,6.40
2023-02-18T07:20:55.533Z,6.40
2023-02-18T07:23:22.471Z,6.40
2023-02-18T07:25:49.242Z,6.50
2023-02-18T07:28:16.345Z,6.40
2023-02-18T07:30:43.315Z,6.40
2023-02-18T07:33:10.082Z,6.50
2023-02-18T07:35:36.993Z,6.40
2023-02-18T07:38:04.119Z,6.40
2023-02-18T07:40:31.491Z,6.50
2023-02-18T07:42:58.261Z,6.50
2023-02-18T07:45:26.051Z,6.50
2023-02-18T07:47:52.933Z,6.50
2023-02-18T07:50:19.755Z,6.60
2023-02-18T07:52:47.517Z,6.60
2023-02-18T07:55:14.349Z,6.60
2023-02-18T07:57:57.268Z,6.60
2023-02-18T08:00:24.882Z,6.60
2023-02-18T08:02:51.763Z,6.60
2023-02-18T08:05:18.736Z,6.70
2023-02-18T08:07:45.866Z,6.70
2023-02-18T08:10:12.657Z,6.70
2023-02-18T08:12:39.498Z,6.70
2023-02-18T08:15:06.542Z,6.70
2023-02-18T08:17:33.482Z,6.80
2023-02-18T08:20:00.414Z,6.80
2023-02-18T08:22:27.444Z,6.80
2023-02-18T08:24:56.802Z,6.80
2023-02-18T08:27:24.152Z,6.80
2023-02-18T08:29:51.136Z,6.80
2023-02-18T08:32:17.893Z,6.80
2023-02-18T08:34:44.686Z,6.80
2023-02-18T08:37:11.453Z,6.80
2023-02-18T08:39:39.925Z,6.80
2023-02-18T08:42:07.320Z,6.80
2023-02-18T08:44:34.100Z,6.80
2023-02-18T08:47:01.264Z,6.80
2023-02-18T08:49:28.356Z,6.80
2023-02-18T08:51:56.094Z,6.90
2023-02-18T08:54:24.097Z,6.90
2023-02-18T08:56:55.700Z,7.00
2023-02-18T08:59:22.712Z,7.10
2023-02-18T09:01:49.646Z,7.00
2023-02-18T09:04:17.312Z,7.10
2023-02-18T09:06:44.458Z,7.10
2023-02-18T09:09:11.356Z,7.10
2023-02-18T09:11:38.147Z,7.10
2023-02-18T09:14:04.874Z,7.10
2023-02-18T09:16:31.608Z,7.10
2023-02-18T09:18:59.478Z,7.10
2023-02-18T09:21:26.867Z,7.10
2023-02-18T09:23:53.812Z,7.10
2023-02-18T09:26:23.156Z,7.10
2023-02-18T09:28:51.045Z,7.10
2023-02-18T09:31:20.734Z,7.10
2023-02-18T09:33:52.512Z,7.20
2023-02-18T09:36:20.626Z,7.20
2023-02-18T09:38:47.585Z,7.20
2023-02-18T09:41:30.031Z,7.20
2023-02-18T09:44:00.695Z,7.20
2023-02-18T09:46:39.132Z,7.20
2023-02-18T09:49:15.704Z,7.30
2023-02-18T09:51:43.391Z,7.30
2023-02-18T09:54:14.166Z,7.20
2023-02-18T09:56:42.119Z,7.20
2023-02-18T09:59:14.774Z,7.20
2023-02-18T10:01:43.179Z,7.20
2023-02-18T10:04:39.854Z,7.20
2023-02-18T10:07:13.960Z,7.20
2023-02-18T10:09:42.219Z,7.20
2023-02-18T10:12:19.546Z,7.20
2023-02-18T10:14:52.842Z,7.30
2023-02-18T10:17:23.702Z,7.30
2023-02-18T10:19:55.414Z,7.30
2023-02-18T10:22:24.241Z,7.30
2023-02-18T10:24:55.717Z,7.30
2023-02-18T10:27:29.415Z,7.30
2023-02-18T10:30:01.083Z,7.30
2023-02-18T10:32:35.122Z,7.30
2023-02-18T10:35:14.174Z,7.20
2023-02-18T10:38:02.279Z,7.20
2023-02-18T10:40:53.182Z,7.20
2023-02-18T10:43:28.102Z,7.20
2023-02-18T10:46:16.284Z,7.20
2023-02-18T10:49:00.415Z,7.30
2023-02-18T10:51:32.203Z,7.30
2023-02-18T10:53:59.677Z,7.30
2023-02-18T10:56:48.523Z,7.20
2023-02-18T10:59:23.591Z,7.30
2023-02-18T11:02:05.258Z,7.40
2023-02-18T11:04:39.670Z,7.40
2023-02-18T11:07:32.349Z,7.40
2023-02-18T11:10:02.164Z,7.40
2023-02-18T11:12:49.027Z,7.50
2023-02-18T11:15:17.937Z,7.50
2023-02-18T11:17:50.166Z,7.50
2023-02-18T11:20:30.250Z,7.50
2023-02-18T11:23:15.900Z,7.60
2023-02-18T11:25:54.555Z,7.60
2023-02-18T11:28:21.243Z,7.70
2023-02-18T11:30:54.098Z,7.70
2023-02-18T11:33:23.849Z,7.60
2023-02-18T11:35:53.910Z,7.70
2023-02-18T11:38:34.333Z,7.70
2023-02-18T11:41:08.793Z,7.70
2023-02-18T11:43:36.966Z,7.70
2023-02-18T11:46:21.158Z,7.80
2023-02-18T11:48:48.934Z,7.70
2023-02-18T11:51:21.572Z,7.80
2023-02-18T11:54:19.406Z,7.70
2023-02-18T11:57:02.325Z,7.70
2023-02-18T11:59:33.296Z,7.70
2023-02-18T12:02:25.948Z,7.70
2023-02-18T12:04:55.755Z,7.70
2023-02-18T12:07:39.425Z,7.70
2023-02-18T12:10:36.338Z,7.80
2023-02-18T12:13:29.214Z,7.80
2023-02-18T12:16:17.595Z,7.80
2023-02-18T12:19:21.965Z,7.70
2023-02-18T12:21:55.582Z,7.60
2023-02-18T12:25:15.818Z,7.60
2023-02-18T12:27:52.300Z,7.60
2023-02-18T12:30:55.340Z,7.60
2023-02-18T12:33:46.553Z,7.60
2023-02-18T12:36:48.516Z,7.60
2023-02-18T12:39:31.589Z,7.60
2023-02-18T12:42:22.049Z,7.60
2023-02-18T12:45:22.396Z,7.60
2023-02-18T12:48:40.409Z,7.60
2023-02-18T12:51:35.048Z,7.60
2023-02-18T12:54:55.500Z,7.60
2023-02-18T12:57:43.922Z,7.70
2023-02-18T13:00:35.168Z,7.70
2023-02-18T13:03:39.607Z,7.70
2023-02-18T13:06:15.342Z,7.70
2023-02-18T13:08:50.408Z,7.70
2023-02-18T13:11:41.957Z,7.70
2023-02-18T13:14:27.374Z,7.70
2023-02-18T13:16:57.486Z,7.70
2023-02-18T13:19:28.670Z,7.70
2023-02-18T13:22:02.376Z,7.70
2023-02-18T13:24:37.730Z,7.70
2023-02-18T13:27:24.962Z,7.70
2023-02-18T13:29:54.470Z,7.70
2023-02-18T13:32:34.439Z,7.60
2023-02-18T13:35:13.064Z,7.60
2023-02-18T13:38:02.908Z,7.60
2023-02-18T13:40:33.006Z,7.60
2023-02-18T13:43:21.682Z,7.60
2023-02-18T13:46:11.851Z,7.60
2023-02-18T13:48:52.735Z,7.60
2023-02-18T13:51:38.831Z,7.60
2023-02-18T13:54:17.410Z,7.60
2023-02-18T13:56:54.331Z,7.70
2023-02-18T13:59:34.880Z,7.60
2023-02-18T14:02:27.703Z,7.70
2023-02-18T14:05:08.488Z,7.60
2023-02-18T14:07:36.327Z,7.60
2023-02-18T14:10:06.501Z,7.60
2023-02-18T14:12:52.020Z,7.60
2023-02-18T14:15:18.947Z,7.60
2023-02-18T14:18:07.610Z,7.60
2023-02-18T14:20:37.441Z,7.60
2023-02-18T14:23:24.538Z,7.50
2023-02-18T14:26:12.910Z,7.50
2023-02-18T14:28:48.983Z,7.50
2023-02-18T14:31:15.844Z,7.50
2023-02-18T14:33:47.004Z,7.50
2023-02-18T14:36:16.567Z,7.50
2023-02-18T14:38:50.755Z,7.40
2023-02-18T14:41:22.499Z,7.40
2023-02-18T14:43:56.400Z,7.40
2023-02-18T14:46:44.466Z,7.30
2023-02-18T14:49:43.565Z,7.20
2023-02-18T14:52:38.005Z,7.20
2023-02-18T14:55:08.015Z,7.20
2023-02-18T14:57:49.053Z,7.20
2023-02-18T15:00:22.724Z,7.20
2023-02-18T15:02:55.556Z,7.20
2023-02-18T15:05:31.136Z,7.30
2023-02-18T15:08:03.765Z,7.30
2023-02-18T15:10:47.502Z,7.20
2023-02-18T15:13:22.973Z,7.20
2023-02-18T15:15:56.631Z,7.20
2023-02-18T15:18:56.741Z,7.20
2023-02-18T15:21:31.311Z,7.20
2023-02-18T15:24:26.307Z,7.10
2023-02-18T15:26:55.967Z,7.10
2023-02-18T15:29:44.880Z,7.10
2023-02-18T15:32:22.422Z,7.00
2023-02-18T15:34:58.528Z,7.00
2023-02-18T15:37:25.630Z,6.90
2023-02-18T15:39:52.455Z,6.80
2023-02-18T15:42:34.134Z,6.70
2023-02-18T15:45:15.960Z,6.60
2023-02-18T15:47:48.657Z,6.50
2023-02-18T15:50:33.927Z,6.40
2023-02-18T15:53:08.376Z,6.30
2023-02-18T15:55:39.171Z,6.20
2023-02-18T15:58:12.169Z,6.10
2023-02-18T16:00:52.170Z,6.00
2023-02-18T16:03:26.497Z,5.90
2023-02-18T16:06:24.210Z,5.90
2023-02-18T16:09:06.664Z,5.80
2023-02-18T16:11:38.090Z,5.70
2023-02-18T16:14:08.328Z,5.70
2023-02-18T16:16:37.340Z,5.60
2023-02-18T16:19:04.570Z,5.60
2023-02-18T16:21:44.930Z,5.50
2023-02-18T16:24:23.746Z,5.40
2023-02-18T16:26:53.304Z,5.40
2023-02-18T16:29:37.043Z,5.40
2023-02-18T16:32:05.132Z,5.30
2023-02-18T16:34:32.186Z,5.30
2023-02-18T16:37:17.504Z,5.30
2023-02-18T16:39:44.595Z,5.30
2023-02-18T16:42:12.817Z,5.20
2023-02-18T16:44:40.604Z,5.10
2023-02-18T16:47:08.285Z,5.10
2023-02-18T16:49:35.730Z,5.10
2023-02-18T16:52:07.841Z,5.00
2023-02-18T16:54:34.708Z,5.00
2023-02-18T16:57:01.417Z,5.00
2023-02-18T16:59:28.134Z,4.90
2023-02-18T17:01:56.104Z,4.80
2023-02-18T17:04:23.619Z,4.80
2023-02-18T17:06:50.567Z,4.70
2023-02-18T17:09:22.008Z,4.70
2023-02-18T17:11:51.422Z,4.60
2023-02-18T17:14:20.118Z,4.50
2023-02-18T17:16:48.804Z,4.40
2023-02-18T17:19:16.154Z,4.40
2023-02-18T17:21:48.280Z,4.40
2023-02-18T17:24:18.053Z,4.30
2023-02-18T17:26:45.309Z,4.30
2023-02-18T17:29:12.397Z,4.30
2023-02-18T17:31:47.058Z,4.30
2023-02-18T17:34:25.312Z,4.30
2023-02-18T17:36:52.303Z,4.20
2023-02-18T17:39:19.336Z,4.30
2023-02-18T17:41:46.799Z,4.20
2023-02-18T17:44:18.906Z,4.20
2023-02-18T17:46:46.556Z,4.20
2023-02-18T17:49:13.462Z,4.20
2023-02-18T17:51:40.230Z,4.20
2023-02-18T17:54:19.313Z,4.20
2023-02-18T17:56:46.984Z,4.20
2023-02-18T17:59:14.068Z,4.20
2023-02-18T18:01:42.714Z,4.20
2023-02-18T18:04:18.260Z,4.10
2023-02-18T18:06:49.897Z,4.10
2023-02-18T18:09:16.728Z,4.10
2023-02-18T18:11:43.741Z,4.10
2023-02-18T18:14:14.956Z,4.10
2023-02-18T18:16:41.787Z,4.10
2023-02-18T18:19:08.776Z,4.10
2023-02-18T18:21:36.396Z,4.10
2023-02-18T18:24:03.512Z,4.10
2023-02-18T18:26:30.706Z,4.10
2023-02-18T18:28:57.875Z,4.10
2023-02-18T18:31:24.962Z,4.00
2023-02-18T18:33:53.409Z,4.00
2023-02-18T18:36:21.863Z,4.00
2023-02-18T18:38:48.705Z,4.00
2023-02-18T18:41:18.824Z,4.00
2023-02-18T18:43:45.682Z,4.00
2023-02-18T18:46:12.712Z,3.90
2023-02-18T18:48:39.819Z,3.90
2023-02-18T18:51:06.830Z,3.90
2023-02-18T18:53:35.205Z,3.90
2023-02-18T18:56:08.298Z,3.90
2023-02-18T18:58:35.156Z,3.90
2023-02-18T19:01:04.196Z,3.90
2023-02-18T19:03:33.460Z,3.90
2023-02-18T19:06:00.281Z,3.90
2023-02-18T19:08:27.135Z,3.90
2023-02-18T19:10:56.909Z,3.90
2023-02-18T19:13:29.438Z,3.90
2023-02-18T19:16:13.198Z,3.90
2023-02-18T19:18:39.999Z,3.90
2023-02-18T19:21:06.855Z,3.90
2023-02-18T19:23:34.345Z,3.90
2023-02-18T19:26:01.231Z,3.90
2023-02-18T19:28:28.573Z,3.90
2023-02-18T19:30:55.441Z,3.90
2023-02-18T19:33:22.578Z,3.90
2023-02-18T19:35:49.505Z,3.90
2023-02-18T19:38:17.665Z,3.90
2023-02-18T19:40:45.762Z,3.90
2023-02-18T19:43:13.188Z,3.90
2023-02-18T19:45:42.933Z,3.90
2023-02-18T19:48:10.711Z,3.90
2023-02-18T19:50:41.063Z,3.90
2023-02-18T19:53:08.404Z,3.80
2023-02-18T19:55:36.515Z,3.80
2023-02-18T19:58:03.580Z,3.80
2023-02-18T20:00:30.391Z,3.80
2023-02-18T20:02:57.310Z,3.80
2023-02-18T20:05:24.082Z,3.80
2023-02-18T20:07:50.850Z,3.80
2023-02-18T20:10:20.168Z,3.80
2023-02-18T20:12:52.463Z,3.80
2023-02-18T20:15:19.790Z,3.80
2023-02-18T20:17:46.608Z,3.80
2023-02-18T20:20:13.710Z,3.70
2023-02-18T20:22:41.321Z,3.70
2023-02-18T20:25:08.900Z,3.70
2023-02-18T20:27:37.557Z,3.60
2023-02-18T20:30:08.147Z,3.60
2023-02-18T20:32:35.561Z,3.60
2023-02-18T20:35:03.528Z,3.60
2023-02-18T20:37:30.466Z,3.60
2023-02-18T20:39:57.386Z,3.60
2023-02-18T20:42:24.153Z,3.60
2023-02-18T20:44:51.784Z,3.60
2023-02-18T20:47:18.640Z,3.60
2023-02-18T20:49:46.863Z,3.60
2023-02-18T20:52:13.722Z,3.60
2023-02-18T20:54:40.463Z,3.60
2023-02-18T20:57:09.158Z,3.60
2023-02-18T20:59:36.075Z,3.60
2023-02-18T21:02:03.595Z,3.60
2023-02-18T21:04:30.457Z,3.60
2023-02-18T21:06:57.253Z,3.60
2023-02-18T21:09:24.353Z,3.60
2023-02-18T21:11:51.294Z,3.60
2023-02-18T21:14:18.069Z,3.60
2023-02-18T21:16:44.892Z,3.60
2023-02-18T21:19:14.384Z,3.60
2023-02-18T21:21:42.029Z,3.60
2023-02-18T21:24:08.774Z,3.60
2023-02-18T21:26:36.262Z,3.60
2023-02-18T21:29:06.930Z,3.60
2023-02-18T21:31:43.898Z,3.60
2023-02-18T21:34:13.756Z,3.60
2023-02-18T21:36:43.185Z,3.60
2023-02-18T21:39:11.403Z,3.60
2023-02-18T21:41:40.961Z,3.60
2023-02-18T21:44:09.207Z,3.60
2023-02-18T21:46:36.820Z,3.60
2023-02-18T21:49:12.238Z,3.60
2023-02-18T21:52:08.516Z,3.60
2023-02-18T21:54:44.622Z,3.60
2023-02-18T21:57:14.593Z,3.60
2023-02-18T21:59:41.827Z,3.60
2023-02-18T22:02:16.918Z,3.60
2023-02-18T22:04:43.681Z,3.60
2023-02-18T22:07:10.616Z,3.60
2023-02-18T22:09:37.933Z,3.60
2023-02-18T22:12:05.091Z,3.60
2023-02-18T22:14:32.024Z,3.50
2023-02-18T22:16:59.105Z,3.50
2023-02-18T22:19:26.261Z,3.50
2023-02-18T22:21:53.061Z,3.40
2023-02-18T22:24:20.136Z,3.40
2023-02-18T22:26:48.416Z,3.30
2023-02-18T22:29:17.994Z,3.30
2023-02-18T22:31:45.478Z,3.20
2023-02-18T22:34:12.722Z,3.20
2023-02-18T22:36:39.824Z,3.20
2023-02-18T22:39:10.447Z,3.10
2023-02-18T22:41:37.587Z,3.10
2023-02-18T22:44:07.321Z,3.10
2023-02-18T22:46:36.710Z,3.00
2023-02-18T22:49:05.951Z,3.00
2023-02-18T22:51:38.837Z,2.90
2023-02-18T22:54:09.833Z,2.90
2023-02-18T22:56:36.768Z,2.90
2023-02-18T22:59:03.780Z,2.90
2023-02-18T23:01:36.553Z,2.90
2023-02-18T23:04:13.689Z,2.90
2023-02-18T23:06:43.913Z,3.00
2023-02-18T23:09:20.371Z,3.10
2023-02-18T23:11:51.177Z,3.10
2023-02-18T23:14:18.826Z,3.20
2023-02-18T23:17:05.640Z,3.30
2023-02-18T23:19:35.788Z,3.30
2023-02-18T23:22:03.446Z,3.40
2023-02-18T23:24:36.252Z,3.40
2023-02-18T23:27:04.709Z,3.40
2023-02-18T23:29:32.348Z,3.40
2023-02-18T23:32:00.383Z,3.50
2023-02-18T23:34:28.572Z,3.50
2023-02-18T23:36:55.635Z,3.50
2023-02-18T23:39:23.252Z,3.50
2023-02-18T23:41:51.191Z,3.50
2023-02-18T23:44:20.305Z,3.60
2023-02-18T23:46:47.688Z,3.50
2023-02-18T23:49:25.853Z,3.60
2023-02-18T23:51:55.888Z,3.60
2023-02-18T23:54:23.421Z,3.60
2023-02-18T23:56:50.829Z,3.60
2023-02-18T23:59:18.127Z,3.60
